sensor_id;sensor_type;location;lat;lon;timestamp;temperature;humidity
68385;DHT22;55336;43.062;25.626;2023-08-01T00:02:15;18.40;99.90
68385;DHT22;55336;43.062;25.626;2023-08-01T00:04:41;18.40;99.90
68385;DHT22;55336;43.062;25.626;2023-08-01T00:07:06;18.40;99.90
68385;DHT22;55336;43.062;25.626;2023-08-01T00:09:32;18.50;99.90
68385;DHT22;55336;43.062;25.626;2023-08-01T00:11:58;18.50;99.90
68385;DHT22;55336;43.062;25.626;2023-08-01T00:14:24;18.50;99.90
68385;DHT22;55336;43.062;25.626;2023-08-01T00:16:50;18.60;99.90
68385;DHT22;55336;43.062;25.626;2023-08-01T00:19:17;18.50;99.90
68385;DHT22;55336;43.062;25.626;2023-08-01T00:21:42;18.50;99.90
68385;DHT22;55336;43.062;25.626;2023-08-01T00:24:08;18.60;99.90
68385;DHT22;55336;43.062;25.626;2023-08-01T00:26:34;18.60;99.90
68385;DHT22;55336;43.062;25.626;2023-08-01T00:29:00;18.60;99.90
68385;DHT22;55336;43.062;25.626;2023-08-01T00:31:26;18.60;99.90
68385;DHT22;55336;43.062;25.626;2023-08-01T00:33:52;18.70;99.90
68385;DHT22;55336;43.062;25.626;2023-08-01T00:36:18;18.70;99.90
68385;DHT22;55336;43.062;25.626;2023-08-01T00:38:43;18.70;99.90
68385;DHT22;55336;43.062;25.626;2023-08-01T00:41:10;18.80;99.90
68385;DHT22;55336;43.062;25.626;2023-08-01T00:43:36;18.80;99.90
68385;DHT22;55336;43.062;25.626;2023-08-01T00:46:04;18.90;99.90
68385;DHT22;55336;43.062;25.626;2023-08-01T00:48:31;18.90;99.90
68385;DHT22;55336;43.062;25.626;2023-08-01T00:50:58;18.90;99.90
68385;DHT22;55336;43.062;25.626;2023-08-01T00:53:26;19.00;99.90
68385;DHT22;55336;43.062;25.626;2023-08-01T00:55:52;19.00;99.90
68385;DHT22;55336;43.062;25.626;2023-08-01T00:58:20;19.00;99.90
68385;DHT22;55336;43.062;25.626;2023-08-01T01:00:46;19.10;99.90
68385;DHT22;55336;43.062;25.626;2023-08-01T01:03:12;19.00;99.90
68385;DHT22;55336;43.062;25.626;2023-08-01T01:05:42;19.00;99.90
68385;DHT22;55336;43.062;25.626;2023-08-01T01:08:08;19.00;99.90
68385;DHT22;55336;43.062;25.626;2023-08-01T01:10:34;19.00;99.90
68385;DHT22;55336;43.062;25.626;2023-08-01T01:13:00;19.00;99.90
68385;DHT22;55336;43.062;25.626;2023-08-01T01:15:26;19.00;99.90
68385;DHT22;55336;43.062;25.626;2023-08-01T01:17:52;18.90;99.90
68385;DHT22;55336;43.062;25.626;2023-08-01T01:20:23;18.80;99.90
68385;DHT22;55336;43.062;25.626;2023-08-01T01:22:51;18.80;99.90
68385;DHT22;55336;43.062;25.626;2023-08-01T01:25:19;18.80;99.90
68385;DHT22;55336;43.062;25.626;2023-08-01T01:27:49;18.70;99.90
68385;DHT22;55336;43.062;25.626;2023-08-01T01:30:18;18.60;99.90
68385;DHT22;55336;43.062;25.626;2023-08-01T01:32:44;18.60;99.90
68385;DHT22;55336;43.062;25.626;2023-08-01T01:35:10;18.50;99.90
68385;DHT22;55336;43.062;25.626;2023-08-01T01:37:36;18.50;99.90
68385;DHT22;55336;43.062;25.626;2023-08-01T01:40:02;18.50;99.90
68385;DHT22;55336;43.062;25.626;2023-08-01T01:42:27;18.40;99.90
68385;DHT22;55336;43.062;25.626;2023-08-01T01:44:53;18.30;99.90
68385;DHT22;55336;43.062;25.626;2023-08-01T01:47:19;18.30;99.90
68385;DHT22;55336;43.062;25.626;2023-08-01T01:49:45;18.30;99.90
68385;DHT22;55336;43.062;25.626;2023-08-01T01:52:11;18.20;99.90
68385;DHT22;55336;43.062;25.626;2023-08-01T01:54:37;18.20;99.90
68385;DHT22;55336;43.062;25.626;2023-08-01T01:57:02;18.20;99.90
68385;DHT22;55336;43.062;25.626;2023-08-01T01:59:28;18.10;99.90
68385;DHT22;55336;43.062;25.626;2023-08-01T02:01:54;18.10;99.90
68385;DHT22;55336;43.062;25.626;2023-08-01T02:04:20;18.10;99.90
68385;DHT22;55336;43.062;25.626;2023-08-01T02:06:47;18.00;99.90
68385;DHT22;55336;43.062;25.626;2023-08-01T02:09:13;18.00;99.90
68385;DHT22;55336;43.062;25.626;2023-08-01T02:11:39;18.00;99.90
68385;DHT22;55336;43.062;25.626;2023-08-01T02:14:05;18.00;99.90
68385;DHT22;55336;43.062;25.626;2023-08-01T02:16:30;17.90;99.90
68385;DHT22;55336;43.062;25.626;2023-08-01T02:18:56;17.90;99.90
68385;DHT22;55336;43.062;25.626;2023-08-01T02:21:22;17.80;99.90
68385;DHT22;55336;43.062;25.626;2023-08-01T02:23:48;17.80;99.90
68385;DHT22;55336;43.062;25.626;2023-08-01T02:26:13;17.80;99.90
68385;DHT22;55336;43.062;25.626;2023-08-01T02:28:40;17.80;99.90
68385;DHT22;55336;43.062;25.626;2023-08-01T02:31:05;17.80;99.90
68385;DHT22;55336;43.062;25.626;2023-08-01T02:33:32;17.70;99.90
68385;DHT22;55336;43.062;25.626;2023-08-01T02:35:57;17.70;99.90
68385;DHT22;55336;43.062;25.626;2023-08-01T02:38:23;17.60;99.90
68385;DHT22;55336;43.062;25.626;2023-08-01T02:40:49;17.60;99.90
68385;DHT22;55336;43.062;25.626;2023-08-01T02:43:15;17.50;99.90
68385;DHT22;55336;43.062;25.626;2023-08-01T02:45:43;17.50;99.90
68385;DHT22;55336;43.062;25.626;2023-08-01T02:48:15;17.40;99.90
68385;DHT22;55336;43.062;25.626;2023-08-01T02:50:41;17.40;99.90
68385;DHT22;55336;43.062;25.626;2023-08-01T02:53:07;17.40;99.90
68385;DHT22;55336;43.062;25.626;2023-08-01T02:55:32;17.30;99.90
68385;DHT22;55336;43.062;25.626;2023-08-01T02:57:58;17.30;99.90
68385;DHT22;55336;43.062;25.626;2023-08-01T03:00:24;17.20;99.90
68385;DHT22;55336;43.062;25.626;2023-08-01T03:02:51;17.20;99.90
68385;DHT22;55336;43.062;25.626;2023-08-01T03:05:17;17.20;99.90
68385;DHT22;55336;43.062;25.626;2023-08-01T03:07:43;17.20;99.90
68385;DHT22;55336;43.062;25.626;2023-08-01T03:10:09;17.20;99.90
68385;DHT22;55336;43.062;25.626;2023-08-01T03:12:36;17.30;99.90
68385;DHT22;55336;43.062;25.626;2023-08-01T03:15:03;17.30;99.90
68385;DHT22;55336;43.062;25.626;2023-08-01T03:17:29;17.30;99.90
68385;DHT22;55336;43.062;25.626;2023-08-01T03:19:55;17.30;99.90
68385;DHT22;55336;43.062;25.626;2023-08-01T03:22:21;17.40;99.90
68385;DHT22;55336;43.062;25.626;2023-08-01T03:24:47;17.40;99.90
68385;DHT22;55336;43.062;25.626;2023-08-01T03:27:13;17.50;99.90
68385;DHT22;55336;43.062;25.626;2023-08-01T03:29:39;17.50;99.90
68385;DHT22;55336;43.062;25.626;2023-08-01T03:32:05;17.50;99.90
68385;DHT22;55336;43.062;25.626;2023-08-01T03:34:31;17.50;99.90
68385;DHT22;55336;43.062;25.626;2023-08-01T03:36:58;17.60;99.90
68385;DHT22;55336;43.062;25.626;2023-08-01T03:39:24;17.60;99.90
68385;DHT22;55336;43.062;25.626;2023-08-01T03:41:49;17.70;99.90
68385;DHT22;55336;43.062;25.626;2023-08-01T03:44:15;17.70;99.90
68385;DHT22;55336;43.062;25.626;2023-08-01T03:46:43;17.90;99.90
68385;DHT22;55336;43.062;25.626;2023-08-01T03:49:09;17.90;99.90
68385;DHT22;55336;43.062;25.626;2023-08-01T03:51:34;18.10;99.90
68385;DHT22;55336;43.062;25.626;2023-08-01T03:54:01;18.20;99.90
68385;DHT22;55336;43.062;25.626;2023-08-01T03:56:26;18.30;99.90
68385;DHT22;55336;43.062;25.626;2023-08-01T03:58:53;18.40;99.90
68385;DHT22;55336;43.062;25.626;2023-08-01T04:01:19;18.50;99.90
68385;DHT22;55336;43.062;25.626;2023-08-01T04:03:46;18.60;99.90
68385;DHT22;55336;43.062;25.626;2023-08-01T04:06:12;18.70;99.90
68385;DHT22;55336;43.062;25.626;2023-08-01T04:08:40;18.70;99.90
68385;DHT22;55336;43.062;25.626;2023-08-01T04:11:06;18.70;99.90
68385;DHT22;55336;43.062;25.626;2023-08-01T04:13:32;18.80;99.90
68385;DHT22;55336;43.062;25.626;2023-08-01T04:15:58;18.80;99.90
68385;DHT22;55336;43.062;25.626;2023-08-01T04:18:23;18.80;99.90
68385;DHT22;55336;43.062;25.626;2023-08-01T04:20:49;18.80;99.90
68385;DHT22;55336;43.062;25.626;2023-08-01T04:23:15;19.00;99.90
68385;DHT22;55336;43.062;25.626;2023-08-01T04:25:41;19.10;99.90
68385;DHT22;55336;43.062;25.626;2023-08-01T04:28:07;19.10;99.90
68385;DHT22;55336;43.062;25.626;2023-08-01T04:30:33;19.10;99.90
68385;DHT22;55336;43.062;25.626;2023-08-01T04:33:00;19.20;99.90
68385;DHT22;55336;43.062;25.626;2023-08-01T04:35:26;19.30;99.90
68385;DHT22;55336;43.062;25.626;2023-08-01T04:37:51;19.30;99.90
68385;DHT22;55336;43.062;25.626;2023-08-01T04:40:17;19.50;99.90
68385;DHT22;55336;43.062;25.626;2023-08-01T04:42:43;19.60;99.90
68385;DHT22;55336;43.062;25.626;2023-08-01T04:45:09;19.60;99.90
68385;DHT22;55336;43.062;25.626;2023-08-01T04:47:35;19.70;99.90
68385;DHT22;55336;43.062;25.626;2023-08-01T04:50:01;19.80;99.90
68385;DHT22;55336;43.062;25.626;2023-08-01T04:52:27;19.90;99.90
68385;DHT22;55336;43.062;25.626;2023-08-01T04:54:53;19.90;99.90
68385;DHT22;55336;43.062;25.626;2023-08-01T04:57:19;19.90;99.90
68385;DHT22;55336;43.062;25.626;2023-08-01T04:59:45;20.10;99.90
68385;DHT22;55336;43.062;25.626;2023-08-01T05:02:10;20.20;99.90
68385;DHT22;55336;43.062;25.626;2023-08-01T05:04:37;20.30;99.90
68385;DHT22;55336;43.062;25.626;2023-08-01T05:07:03;20.40;99.90
68385;DHT22;55336;43.062;25.626;2023-08-01T05:09:32;20.40;99.90
68385;DHT22;55336;43.062;25.626;2023-08-01T05:11:58;20.40;99.90
68385;DHT22;55336;43.062;25.626;2023-08-01T05:14:23;20.40;99.90
68385;DHT22;55336;43.062;25.626;2023-08-01T05:16:50;20.40;99.90
68385;DHT22;55336;43.062;25.626;2023-08-01T05:19:15;20.40;99.90
68385;DHT22;55336;43.062;25.626;2023-08-01T05:21:41;20.40;99.90
68385;DHT22;55336;43.062;25.626;2023-08-01T05:24:07;20.40;99.90
68385;DHT22;55336;43.062;25.626;2023-08-01T05:26:33;20.50;99.90
68385;DHT22;55336;43.062;25.626;2023-08-01T05:28:59;20.50;99.90
68385;DHT22;55336;43.062;25.626;2023-08-01T05:31:25;20.70;99.90
68385;DHT22;55336;43.062;25.626;2023-08-01T05:33:50;20.90;99.90
68385;DHT22;55336;43.062;25.626;2023-08-01T05:36:16;21.30;99.90
68385;DHT22;55336;43.062;25.626;2023-08-01T05:38:42;21.70;99.90
68385;DHT22;55336;43.062;25.626;2023-08-01T05:41:07;22.00;99.90
68385;DHT22;55336;43.062;25.626;2023-08-01T05:43:33;22.30;99.90
68385;DHT22;55336;43.062;25.626;2023-08-01T05:45:59;22.40;99.90
68385;DHT22;55336;43.062;25.626;2023-08-01T05:48:25;22.80;99.90
68385;DHT22;55336;43.062;25.626;2023-08-01T05:50:51;23.00;99.90
68385;DHT22;55336;43.062;25.626;2023-08-01T05:53:18;23.40;99.90
68385;DHT22;55336;43.062;25.626;2023-08-01T05:55:44;24.00;99.90
68385;DHT22;55336;43.062;25.626;2023-08-01T05:58:10;24.40;99.90
68385;DHT22;55336;43.062;25.626;2023-08-01T06:00:36;24.50;99.90
68385;DHT22;55336;43.062;25.626;2023-08-01T06:03:01;25.10;99.90
68385;DHT22;55336;43.062;25.626;2023-08-01T06:05:27;25.70;99.90
68385;DHT22;55336;43.062;25.626;2023-08-01T06:07:54;26.10;99.90
68385;DHT22;55336;43.062;25.626;2023-08-01T06:10:21;26.40;99.90
68385;DHT22;55336;43.062;25.626;2023-08-01T06:12:47;26.80;99.90
68385;DHT22;55336;43.062;25.626;2023-08-01T06:15:13;27.00;99.90
68385;DHT22;55336;43.062;25.626;2023-08-01T06:17:39;27.10;99.90
68385;DHT22;55336;43.062;25.626;2023-08-01T06:20:05;27.40;99.90
68385;DHT22;55336;43.062;25.626;2023-08-01T06:22:31;27.40;99.90
68385;DHT22;55336;43.062;25.626;2023-08-01T06:24:56;27.70;99.90
68385;DHT22;55336;43.062;25.626;2023-08-01T06:27:22;27.50;99.90
68385;DHT22;55336;43.062;25.626;2023-08-01T06:29:48;27.80;99.90
68385;DHT22;55336;43.062;25.626;2023-08-01T06:32:14;28.00;99.90
68385;DHT22;55336;43.062;25.626;2023-08-01T06:34:40;28.50;99.90
68385;DHT22;55336;43.062;25.626;2023-08-01T06:37:05;28.70;99.90
68385;DHT22;55336;43.062;25.626;2023-08-01T06:39:31;28.40;99.90
68385;DHT22;55336;43.062;25.626;2023-08-01T06:41:57;28.50;99.90
68385;DHT22;55336;43.062;25.626;2023-08-01T06:44:23;28.70;99.90
68385;DHT22;55336;43.062;25.626;2023-08-01T06:46:49;28.60;99.90
68385;DHT22;55336;43.062;25.626;2023-08-01T06:49:14;29.20;99.90
68385;DHT22;55336;43.062;25.626;2023-08-01T06:51:41;29.40;99.20
68385;DHT22;55336;43.062;25.626;2023-08-01T06:54:08;29.70;90.70
68385;DHT22;55336;43.062;25.626;2023-08-01T06:56:34;29.90;92.20
68385;DHT22;55336;43.062;25.626;2023-08-01T06:59:00;29.80;85.80
68385;DHT22;55336;43.062;25.626;2023-08-01T07:01:25;30.00;81.70
68385;DHT22;55336;43.062;25.626;2023-08-01T07:03:55;30.20;80.20
68385;DHT22;55336;43.062;25.626;2023-08-01T07:06:23;30.40;70.20
68385;DHT22;55336;43.062;25.626;2023-08-01T07:08:50;30.70;67.20
68385;DHT22;55336;43.062;25.626;2023-08-01T07:11:16;31.10;65.70
68385;DHT22;55336;43.062;25.626;2023-08-01T07:13:42;31.10;61.10
68385;DHT22;55336;43.062;25.626;2023-08-01T07:16:08;31.30;58.20
68385;DHT22;55336;43.062;25.626;2023-08-01T07:18:33;31.40;57.70
68385;DHT22;55336;43.062;25.626;2023-08-01T07:21:01;31.60;58.50
68385;DHT22;55336;43.062;25.626;2023-08-01T07:23:26;31.30;57.70
68385;DHT22;55336;43.062;25.626;2023-08-01T07:25:52;31.70;57.20
68385;DHT22;55336;43.062;25.626;2023-08-01T07:28:18;32.10;54.80
68385;DHT22;55336;43.062;25.626;2023-08-01T07:30:44;32.20;53.50
68385;DHT22;55336;43.062;25.626;2023-08-01T07:33:10;32.30;54.00
68385;DHT22;55336;43.062;25.626;2023-08-01T07:35:36;32.10;55.80
68385;DHT22;55336;43.062;25.626;2023-08-01T07:38:02;32.50;51.70
68385;DHT22;55336;43.062;25.626;2023-08-01T07:40:28;32.60;51.60
68385;DHT22;55336;43.062;25.626;2023-08-01T07:42:54;32.40;52.10
68385;DHT22;55336;43.062;25.626;2023-08-01T07:45:20;32.40;49.10
68385;DHT22;55336;43.062;25.626;2023-08-01T07:47:46;32.20;50.00
68385;DHT22;55336;43.062;25.626;2023-08-01T07:50:12;32.20;49.60
68385;DHT22;55336;43.062;25.626;2023-08-01T07:52:38;32.30;50.20
68385;DHT22;55336;43.062;25.626;2023-08-01T07:55:04;32.00;50.50
68385;DHT22;55336;43.062;25.626;2023-08-01T07:57:30;32.10;48.50
68385;DHT22;55336;43.062;25.626;2023-08-01T07:59:56;32.60;47.00
68385;DHT22;55336;43.062;25.626;2023-08-01T08:02:22;31.90;53.00
68385;DHT22;55336;43.062;25.626;2023-08-01T08:04:48;31.90;52.80
68385;DHT22;55336;43.062;25.626;2023-08-01T08:07:13;32.40;47.60
68385;DHT22;55336;43.062;25.626;2023-08-01T08:09:39;32.50;50.10
68385;DHT22;55336;43.062;25.626;2023-08-01T08:12:06;32.60;48.80
68385;DHT22;55336;43.062;25.626;2023-08-01T08:14:35;32.70;48.80
68385;DHT22;55336;43.062;25.626;2023-08-01T08:17:00;33.00;45.60
68385;DHT22;55336;43.062;25.626;2023-08-01T08:19:26;32.90;43.90
68385;DHT22;55336;43.062;25.626;2023-08-01T08:21:52;33.30;44.30
68385;DHT22;55336;43.062;25.626;2023-08-01T08:24:19;32.80;43.40
68385;DHT22;55336;43.062;25.626;2023-08-01T08:26:45;32.70;44.50
68385;DHT22;55336;43.062;25.626;2023-08-01T08:29:11;32.90;44.00
68385;DHT22;55336;43.062;25.626;2023-08-01T08:31:37;33.40;43.60
68385;DHT22;55336;43.062;25.626;2023-08-01T08:34:03;33.50;43.10
68385;DHT22;55336;43.062;25.626;2023-08-01T08:36:29;33.60;42.50
68385;DHT22;55336;43.062;25.626;2023-08-01T08:38:55;33.30;42.80
68385;DHT22;55336;43.062;25.626;2023-08-01T08:41:26;33.90;42.00
68385;DHT22;55336;43.062;25.626;2023-08-01T08:43:56;34.10;40.60
68385;DHT22;55336;43.062;25.626;2023-08-01T08:46:27;34.20;40.10
68385;DHT22;55336;43.062;25.626;2023-08-01T08:48:57;34.60;39.80
68385;DHT22;55336;43.062;25.626;2023-08-01T08:51:26;34.60;39.40
68385;DHT22;55336;43.062;25.626;2023-08-01T08:53:54;33.90;40.70
68385;DHT22;55336;43.062;25.626;2023-08-01T08:56:20;34.40;40.40
68385;DHT22;55336;43.062;25.626;2023-08-01T08:58:48;34.60;40.00
68385;DHT22;55336;43.062;25.626;2023-08-01T09:01:15;34.30;39.60
68385;DHT22;55336;43.062;25.626;2023-08-01T09:03:42;34.30;40.30
68385;DHT22;55336;43.062;25.626;2023-08-01T09:06:31;34.80;38.20
68385;DHT22;55336;43.062;25.626;2023-08-01T09:09:17;35.30;38.10
68385;DHT22;55336;43.062;25.626;2023-08-01T09:11:49;35.20;37.10
68385;DHT22;55336;43.062;25.626;2023-08-01T09:14:15;34.20;42.30
68385;DHT22;55336;43.062;25.626;2023-08-01T09:16:42;34.50;40.10
68385;DHT22;55336;43.062;25.626;2023-08-01T09:19:09;35.00;39.40
68385;DHT22;55336;43.062;25.626;2023-08-01T09:21:36;35.40;37.20
68385;DHT22;55336;43.062;25.626;2023-08-01T09:24:09;35.20;37.80
68385;DHT22;55336;43.062;25.626;2023-08-01T09:26:36;34.80;38.00
68385;DHT22;55336;43.062;25.626;2023-08-01T09:29:05;35.60;37.20
68385;DHT22;55336;43.062;25.626;2023-08-01T09:31:34;35.70;38.20
68385;DHT22;55336;43.062;25.626;2023-08-01T09:34:01;36.30;36.60
68385;DHT22;55336;43.062;25.626;2023-08-01T09:36:31;36.50;34.30
68385;DHT22;55336;43.062;25.626;2023-08-01T09:39:01;36.20;40.10
68385;DHT22;55336;43.062;25.626;2023-08-01T09:41:31;36.00;36.10
68385;DHT22;55336;43.062;25.626;2023-08-01T09:44:00;36.50;34.60
68385;DHT22;55336;43.062;25.626;2023-08-01T09:46:27;36.50;34.40
68385;DHT22;55336;43.062;25.626;2023-08-01T09:49:10;35.20;37.90
68385;DHT22;55336;43.062;25.626;2023-08-01T09:51:49;36.00;36.80
68385;DHT22;55336;43.062;25.626;2023-08-01T09:54:16;35.10;41.00
68385;DHT22;55336;43.062;25.626;2023-08-01T09:56:47;35.70;36.30
68385;DHT22;55336;43.062;25.626;2023-08-01T09:59:25;36.20;35.30
68385;DHT22;55336;43.062;25.626;2023-08-01T10:01:53;36.40;33.50
68385;DHT22;55336;43.062;25.626;2023-08-01T10:04:21;36.40;32.70
68385;DHT22;55336;43.062;25.626;2023-08-01T10:06:59;36.40;33.20
68385;DHT22;55336;43.062;25.626;2023-08-01T10:09:26;35.50;34.60
68385;DHT22;55336;43.062;25.626;2023-08-01T10:11:52;36.00;34.60
68385;DHT22;55336;43.062;25.626;2023-08-01T10:14:20;35.60;34.40
68385;DHT22;55336;43.062;25.626;2023-08-01T10:16:47;36.10;34.10
68385;DHT22;55336;43.062;25.626;2023-08-01T10:19:13;36.60;33.50
68385;DHT22;55336;43.062;25.626;2023-08-01T10:21:41;36.60;33.50
68385;DHT22;55336;43.062;25.626;2023-08-01T10:24:08;36.60;33.50
68385;DHT22;55336;43.062;25.626;2023-08-01T10:26:35;36.70;32.20
68385;DHT22;55336;43.062;25.626;2023-08-01T10:29:00;37.10;31.50
68385;DHT22;55336;43.062;25.626;2023-08-01T10:31:28;36.70;31.50
68385;DHT22;55336;43.062;25.626;2023-08-01T10:34:05;36.90;31.70
68385;DHT22;55336;43.062;25.626;2023-08-01T10:36:31;35.70;35.30
68385;DHT22;55336;43.062;25.626;2023-08-01T10:38:59;36.60;32.50
68385;DHT22;55336;43.062;25.626;2023-08-01T10:41:33;37.00;31.30
68385;DHT22;55336;43.062;25.626;2023-08-01T10:44:16;37.30;30.30
68385;DHT22;55336;43.062;25.626;2023-08-01T10:46:46;34.30;35.50
68385;DHT22;55336;43.062;25.626;2023-08-01T10:49:12;34.30;37.50
68385;DHT22;55336;43.062;25.626;2023-08-01T10:51:38;36.00;37.50
68385;DHT22;55336;43.062;25.626;2023-08-01T10:54:04;36.20;35.30
68385;DHT22;55336;43.062;25.626;2023-08-01T10:56:29;37.20;32.80
68385;DHT22;55336;43.062;25.626;2023-08-01T10:58:57;36.70;31.70
68385;DHT22;55336;43.062;25.626;2023-08-01T11:01:23;37.20;32.60
68385;DHT22;55336;43.062;25.626;2023-08-01T11:03:52;36.60;32.20
68385;DHT22;55336;43.062;25.626;2023-08-01T11:06:17;37.00;31.30
68385;DHT22;55336;43.062;25.626;2023-08-01T11:08:43;37.70;30.30
68385;DHT22;55336;43.062;25.626;2023-08-01T11:11:14;37.20;31.20
68385;DHT22;55336;43.062;25.626;2023-08-01T11:13:40;37.60;30.50
68385;DHT22;55336;43.062;25.626;2023-08-01T11:16:06;38.20;29.60
68385;DHT22;55336;43.062;25.626;2023-08-01T11:18:42;38.00;30.90
68385;DHT22;55336;43.062;25.626;2023-08-01T11:21:08;39.00;28.70
68385;DHT22;55336;43.062;25.626;2023-08-01T11:23:33;38.90;27.90
68385;DHT22;55336;43.062;25.626;2023-08-01T11:26:09;38.70;28.30
68385;DHT22;55336;43.062;25.626;2023-08-01T11:28:36;37.90;30.90
68385;DHT22;55336;43.062;25.626;2023-08-01T11:31:11;37.10;29.50
68385;DHT22;55336;43.062;25.626;2023-08-01T11:33:38;36.80;31.20
68385;DHT22;55336;43.062;25.626;2023-08-01T11:36:04;37.70;29.50
68385;DHT22;55336;43.062;25.626;2023-08-01T11:38:33;38.00;28.80
68385;DHT22;55336;43.062;25.626;2023-08-01T11:41:04;38.00;29.00
68385;DHT22;55336;43.062;25.626;2023-08-01T11:43:40;37.90;27.20
68385;DHT22;55336;43.062;25.626;2023-08-01T11:46:06;38.10;28.10
68385;DHT22;55336;43.062;25.626;2023-08-01T11:48:32;38.30;28.60
68385;DHT22;55336;43.062;25.626;2023-08-01T11:50:59;38.30;27.20
68385;DHT22;55336;43.062;25.626;2023-08-01T11:53:25;38.20;27.70
68385;DHT22;55336;43.062;25.626;2023-08-01T11:55:51;38.00;30.70
68385;DHT22;55336;43.062;25.626;2023-08-01T11:58:35;38.40;30.60
68385;DHT22;55336;43.062;25.626;2023-08-01T12:01:14;38.50;27.50
68385;DHT22;55336;43.062;25.626;2023-08-01T12:06:13;37.80;27.70
68385;DHT22;55336;43.062;25.626;2023-08-01T12:08:41;38.10;28.40
68385;DHT22;55336;43.062;25.626;2023-08-01T12:11:20;37.80;27.50
68385;DHT22;55336;43.062;25.626;2023-08-01T12:13:47;38.30;27.30
68385;DHT22;55336;43.062;25.626;2023-08-01T12:16:14;38.90;27.80
68385;DHT22;55336;43.062;25.626;2023-08-01T12:18:42;39.10;26.90
68385;DHT22;55336;43.062;25.626;2023-08-01T12:21:10;39.30;25.40
68385;DHT22;55336;43.062;25.626;2023-08-01T12:23:36;37.80;28.90
68385;DHT22;55336;43.062;25.626;2023-08-01T12:26:02;38.40;27.90
68385;DHT22;55336;43.062;25.626;2023-08-01T12:28:28;38.80;26.30
68385;DHT22;55336;43.062;25.626;2023-08-01T12:30:54;38.80;25.80
68385;DHT22;55336;43.062;25.626;2023-08-01T12:33:24;39.10;26.20
68385;DHT22;55336;43.062;25.626;2023-08-01T12:35:50;39.50;26.90
68385;DHT22;55336;43.062;25.626;2023-08-01T12:38:16;39.70;25.20
68385;DHT22;55336;43.062;25.626;2023-08-01T12:40:42;40.10;24.90
68385;DHT22;55336;43.062;25.626;2023-08-01T12:43:08;40.20;24.60
68385;DHT22;55336;43.062;25.626;2023-08-01T12:45:34;40.30;25.40
68385;DHT22;55336;43.062;25.626;2023-08-01T12:48:00;40.00;25.40
68385;DHT22;55336;43.062;25.626;2023-08-01T12:50:26;40.60;26.50
68385;DHT22;55336;43.062;25.626;2023-08-01T12:52:51;40.90;24.80
68385;DHT22;55336;43.062;25.626;2023-08-01T12:55:18;40.50;23.40
68385;DHT22;55336;43.062;25.626;2023-08-01T12:57:43;40.30;25.40
68385;DHT22;55336;43.062;25.626;2023-08-01T13:00:10;40.50;23.60
68385;DHT22;55336;43.062;25.626;2023-08-01T13:02:36;40.60;24.10
68385;DHT22;55336;43.062;25.626;2023-08-01T13:05:04;40.70;23.00
68385;DHT22;55336;43.062;25.626;2023-08-01T13:07:30;40.80;23.60
68385;DHT22;55336;43.062;25.626;2023-08-01T13:09:58;40.80;22.90
68385;DHT22;55336;43.062;25.626;2023-08-01T13:12:24;40.70;22.40
68385;DHT22;55336;43.062;25.626;2023-08-01T13:14:50;40.50;23.10
68385;DHT22;55336;43.062;25.626;2023-08-01T13:17:16;40.20;24.10
68385;DHT22;55336;43.062;25.626;2023-08-01T13:19:42;39.70;27.50
68385;DHT22;55336;43.062;25.626;2023-08-01T13:22:08;40.10;24.30
68385;DHT22;55336;43.062;25.626;2023-08-01T13:24:33;40.40;27.70
68385;DHT22;55336;43.062;25.626;2023-08-01T13:27:00;40.30;27.80
68385;DHT22;55336;43.062;25.626;2023-08-01T13:29:26;40.90;22.60
68385;DHT22;55336;43.062;25.626;2023-08-01T13:31:52;40.90;23.60
68385;DHT22;55336;43.062;25.626;2023-08-01T13:34:17;40.70;22.20
68385;DHT22;55336;43.062;25.626;2023-08-01T13:36:43;40.50;23.60
68385;DHT22;55336;43.062;25.626;2023-08-01T13:39:09;40.60;23.60
68385;DHT22;55336;43.062;25.626;2023-08-01T13:41:35;40.70;22.00
68385;DHT22;55336;43.062;25.626;2023-08-01T13:44:01;40.60;22.20
68385;DHT22;55336;43.062;25.626;2023-08-01T13:46:27;40.60;22.30
68385;DHT22;55336;43.062;25.626;2023-08-01T13:48:53;40.20;23.60
68385;DHT22;55336;43.062;25.626;2023-08-01T13:51:19;40.00;24.20
68385;DHT22;55336;43.062;25.626;2023-08-01T13:53:45;40.20;23.00
68385;DHT22;55336;43.062;25.626;2023-08-01T13:56:11;40.50;23.00
68385;DHT22;55336;43.062;25.626;2023-08-01T13:58:41;40.50;22.70
68385;DHT22;55336;43.062;25.626;2023-08-01T14:01:08;39.80;23.50
68385;DHT22;55336;43.062;25.626;2023-08-01T14:03:36;40.10;24.20
68385;DHT22;55336;43.062;25.626;2023-08-01T14:06:10;40.50;24.00
68385;DHT22;55336;43.062;25.626;2023-08-01T14:08:37;40.50;22.50
68385;DHT22;55336;43.062;25.626;2023-08-01T14:11:07;40.50;22.90
68385;DHT22;55336;43.062;25.626;2023-08-01T14:13:34;37.70;27.50
68385;DHT22;55336;43.062;25.626;2023-08-01T14:16:01;38.30;29.80
68385;DHT22;55336;43.062;25.626;2023-08-01T14:18:28;39.40;27.70
68385;DHT22;55336;43.062;25.626;2023-08-01T14:20:54;38.90;28.00
68385;DHT22;55336;43.062;25.626;2023-08-01T14:23:20;39.50;25.20
68385;DHT22;55336;43.062;25.626;2023-08-01T14:25:46;39.40;26.50
68385;DHT22;55336;43.062;25.626;2023-08-01T14:28:12;39.90;27.10
68385;DHT22;55336;43.062;25.626;2023-08-01T14:30:38;40.20;27.90
68385;DHT22;55336;43.062;25.626;2023-08-01T14:33:07;40.40;26.90
68385;DHT22;55336;43.062;25.626;2023-08-01T14:35:36;40.60;26.30
68385;DHT22;55336;43.062;25.626;2023-08-01T14:38:03;40.30;25.70
68385;DHT22;55336;43.062;25.626;2023-08-01T14:40:29;39.60;26.80
68385;DHT22;55336;43.062;25.626;2023-08-01T14:42:56;39.40;27.50
68385;DHT22;55336;43.062;25.626;2023-08-01T14:45:22;39.10;27.20
68385;DHT22;55336;43.062;25.626;2023-08-01T14:47:48;38.90;27.00
68385;DHT22;55336;43.062;25.626;2023-08-01T14:50:14;38.80;28.40
68385;DHT22;55336;43.062;25.626;2023-08-01T14:52:41;38.40;34.20
68385;DHT22;55336;43.062;25.626;2023-08-01T14:55:07;37.90;37.10
68385;DHT22;55336;43.062;25.626;2023-08-01T14:57:34;38.80;35.30
68385;DHT22;55336;43.062;25.626;2023-08-01T15:00:00;39.00;30.70
68385;DHT22;55336;43.062;25.626;2023-08-01T15:02:26;39.20;30.70
68385;DHT22;55336;43.062;25.626;2023-08-01T15:04:53;39.40;28.60
68385;DHT22;55336;43.062;25.626;2023-08-01T15:07:24;39.40;28.20
68385;DHT22;55336;43.062;25.626;2023-08-01T15:09:51;39.60;29.30
68385;DHT22;55336;43.062;25.626;2023-08-01T15:12:18;39.50;30.30
68385;DHT22;55336;43.062;25.626;2023-08-01T15:14:53;39.40;29.60
68385;DHT22;55336;43.062;25.626;2023-08-01T15:17:19;39.20;28.40